Huvudsida
METAR-TAF:

METAR-TAF

Flygplatser :

Mehrabads flygplats

Teheran, Iran

latitud: 35-41N, longitud: 051-21E, höjd: 1204 m

Aktuellt väderrapport

Denna rapport gjordes för 35 minuter sedan, klockan 12:30 UTC
Vind 6 kt från syd/sydväst
Temperatur 18°C
Fuktighet 14%
Tryck 1024 hPa
Sikt: 6000 m

METAR: OIII 121230Z 21006KT 6000 NSC 18/M10 Q1023 A3023

Tid: 16:35 (13:05 UTC)

Väderprognos

Denna rapport gjordes för 1 timme och 45 minuter sedan, klockan 11:20 UTC
Prognos gäller från 12 kl. 12 UTC till 13 kl. 18 UTC
Vind 6 kt från sydväst
Sikt: 5000 m
torrdis
Temporärt
från 13 kl. 03 UTC till 13 kl. 09 UTC
Sikt: 2000 m
torrdis

TAF: OIII 121120Z 1212/1318 22006KT 5000 HZ NSC TEMPO 1303/1309 2000 HZ

Aktuella väderrapporter och prognoser från 4000 flygplatser (METAR- och TAF-rapporter).

De tillgängliga stationerna syns som gula och röda prickar på kartan.

För musen över prickarna för att se namnen på stationerna.

Klicka sedan för att få väderrapporter och prognoser.

För att ändra kartan: Klicka på de gröna knapparna med ett svart kors på för att zooma in; den gröna knappen med ett streck på för att zooma ut; eller på de gröna pilarna för angränsande kartor.


METAR-TAF: